Airfield :
LOGIN :

Register | Disclaimer

   EN    FR    IT 

 










Legend :    VFR   Marginal VFR   IFR   Intensive IFR   Very Intensive IFR
Visi :
Ceiling :
>= 8 km
>= 3000ft
5 to 8 km
1000 to 3000 ft
1500m to 5 km
500 to 1000 ft
800 to 1500m
200 to 500 ft
< 800m
< 200 ft
Symbols :   Thunderstorms  Fog  Heavy snow  Heavy precipitations  Wind > 20 kt
SIGMETs :     Misc.  Thunderstorms  Icing  Turbulence  Mountain Waves  Volcanic Ashes







- Airport Elevation : 1079 ft


ETIK - Illesheim Air Base

CURRENT METAR :
  • 212258Z AUTO 00000KT 9999 CLR 06/06 A3015 RMK AO2 SLP215 T00590059 401690031 $

EXPIRED METARs :
  • 212158Z AUTO 00000KT 9999 CLR 06/06 A3015 RMK AO2 SLP216 T00610061 $
  • 212058Z AUTO 00000KT 9999 CLR 07/07 A3016 RMK AO2 SLP221 T00670067 52004 $

TAF TAF ETIK
Valid from the 21 at 21:00 until the 23 at 03:00 UTC


212101Z 2121/2303 VRB06KT 9999 SKC QNH3015INS
BECMG 2204/2205 VRB06KT 6000 BR SKC QNH3017INS
BECMG 2208/2209 VRB06KT 9999 NSW FEW080 SCT120 QNH3019INS TX18/2213Z TN03/2204Z
No reported NOTAMs for that airfield.



MET'MAP, your aeronautical weather chart ! - Copyright ORBIFLY December 2007 - Disclaimer

ORBIFLY MET'MAP TEAM :

Programming & Development : Alexandra Zaïnal
Concept & Development : Baudouin d'Aumeries
Co-Development & Prog : Marc-Olivier Méhu
Technical & hardware support : Manuel Goepfert

Contact : metmap@orbifly.com




SOURCES & CREDITS :

   NOAA